Time;durP1;ratioP1;P1;durP2;ratioP2;P2;SDS_P1;SDS_P2;PMS_P1;PMS_P2;Temp;Humidity;BMP_temperature;BMP_pressure;BME280_temperature;BME280_humidity;BME280_pressure;Samples;Min_cycle;Max_cycle;Signal;HPM_P1;HPM_P2
2023/04/20 00:00:10;;;;;;;6.70;4.70;;;;;;;11.70;84.58;96538.28;5087310;28;20621;-69
2023/04/20 00:02:40;;;;;;;6.37;4.63;;;;;;;11.57;83.81;96537.25;5086841;28;20237;-68
2023/04/20 00:05:09;;;;;;;5.93;4.53;;;;;;;11.58;84.77;96551.88;5087749;28;20228;-69
2023/04/20 00:07:37;;;;;;;5.83;4.30;;;;;;;11.61;85.14;96543.09;5067933;28;20766;-68
2023/04/20 00:10:05;;;;;;;5.90;4.40;;;;;;;11.75;84.65;96536.22;5087835;28;20283;-69
2023/04/20 00:12:32;;;;;;;6.70;4.40;;;;;;;11.88;83.78;96544.13;5068333;28;20637;-69
2023/04/20 00:14:59;;;;;;;6.17;4.60;;;;;;;11.88;83.83;96526.81;5087584;28;20202;-69
2023/04/20 00:17:30;;;;;;;5.20;4.30;;;;;;;11.85;83.25;96519.19;5086201;28;20197;-68
2023/04/20 00:19:57;;;;;;;6.10;4.43;;;;;;;11.94;83.41;96530.78;5077930;28;20198;-68
2023/04/20 00:22:25;;;;;;;7.10;4.83;;;;;;;11.97;82.97;96520.25;5068585;28;20244;-68
2023/04/20 00:24:52;;;;;;;6.93;5.07;;;;;;;11.92;83.64;96506.69;5065730;28;20233;-69
2023/04/20 00:27:19;;;;;;;7.47;4.80;;;;;;;11.90;83.08;96513.72;5049624;28;20788;-68
2023/04/20 00:29:46;;;;;;;9.10;5.33;;;;;;;11.96;83.92;96513.38;5065839;28;20244;-68
2023/04/20 00:32:13;;;;;;;7.33;5.37;;;;;;;11.89;83.94;96506.91;5049353;28;20220;-69
2023/04/20 00:34:40;;;;;;;8.00;6.90;;;;;;;11.94;83.60;96505.69;5066773;28;20220;-67
2023/04/20 00:37:07;;;;;;;7.27;5.13;;;;;;;12.00;83.31;96499.28;5048566;28;20181;-69
2023/04/20 00:39:33;;;;;;;5.30;3.97;;;;;;;12.00;82.44;96502.72;5067362;28;20202;-69
2023/04/20 00:42:06;;;;;;;6.50;3.67;;;;;;;12.06;82.21;96506.69;5047826;28;20196;-69
2023/04/20 00:44:34;;;;;;;5.67;3.70;;;;;;;11.99;82.00;96503.63;5051130;28;20648;-67
2023/04/20 00:47:01;;;;;;;7.83;4.40;;;;;;;11.98;82.16;96496.78;5051615;28;20219;-67
2023/04/20 00:49:29;;;;;;;8.23;3.80;;;;;;;11.94;81.96;96499.66;5053171;28;20195;-70
2023/04/20 00:51:57;;;;;;;5.10;3.90;;;;;;;11.85;82.68;96497.63;5070368;28;20203;-67
2023/04/20 00:54:29;;;;;;;3.80;3.23;;;;;;;11.80;82.02;96502.22;5051991;28;20667;-68
2023/04/20 00:56:59;;;;;;;5.20;3.10;;;;;;;11.79;82.15;96518.72;5070938;28;20247;-70
2023/04/20 00:59:26;;;;;;;3.60;3.30;;;;;;;11.76;82.74;96513.72;5069341;28;20657;-69
2023/04/20 01:01:53;;;;;;;4.73;2.87;;;;;;;11.64;81.79;96522.19;5071154;28;20198;-68
2023/04/20 01:04:20;;;;;;;4.47;3.00;;;;;;;11.27;83.46;96513.91;5069224;28;20253;-69
2023/04/20 01:06:47;;;;;;;4.37;3.60;;;;;;;11.28;84.21;96513.00;5070656;28;20256;-70
2023/04/20 01:09:14;;;;;;;6.60;3.07;;;;;;;11.35;83.62;96519.50;5070278;28;20185;-68
2023/04/20 01:11:43;;;;;;;4.30;2.80;;;;;;;11.26;83.46;96509.66;5069819;28;20224;-68
2023/04/20 01:14:15;;;;;;;3.80;3.03;;;;;;;11.22;82.78;96510.75;5052936;28;20681;-68
2023/04/20 01:16:43;;;;;;;4.30;2.80;;;;;;;11.18;83.03;96517.03;5070123;28;20197;-68
2023/04/20 01:19:12;;;;;;;3.90;2.87;;;;;;;11.01;82.97;96511.13;5052753;28;20187;-68
2023/04/20 01:21:39;;;;;;;3.87;3.00;;;;;;;10.97;83.20;96510.47;5069175;28;20256;-69
2023/04/20 01:24:06;;;;;;;3.53;2.80;;;;;;;10.88;83.06;96517.94;5070972;28;20232;-71
2023/04/20 01:26:34;;;;;;;2.90;2.53;;;;;;;11.07;83.32;96511.63;5052347;28;20212;-70
2023/04/20 01:29:01;;;;;;;3.50;2.90;;;;;;;11.11;82.59;96513.13;5069625;28;20643;-70
2023/04/20 01:31:27;;;;;;;4.70;2.73;;;;;;;11.07;82.23;96521.13;5052684;28;20197;-71
2023/04/20 01:33:57;;;;;;;3.07;2.53;;;;;;;10.98;82.22;96512.16;5050704;28;20254;-69
2023/04/20 01:36:24;;;;;;;5.47;3.00;;;;;;;10.87;81.90;96503.28;5070382;28;20661;-72
2023/04/20 01:38:51;;;;;;;3.43;2.97;;;;;;;10.74;82.85;96505.72;5068795;28;20327;-69
2023/04/20 01:41:18;;;;;;;4.13;2.83;;;;;;;10.88;82.80;96504.97;5052219;28;20231;-69
2023/04/20 01:43:45;;;;;;;6.57;3.23;;;;;;;10.93;82.73;96503.78;5069761;28;20208;-70
2023/04/20 01:46:12;;;;;;;4.60;2.80;;;;;;;10.95;82.32;96507.13;5051101;28;20224;-70
2023/04/20 01:48:39;;;;;;;4.37;3.17;;;;;;;10.99;82.05;96507.78;5070055;28;20201;-70
2023/04/20 01:51:08;;;;;;;3.53;2.70;;;;;;;11.02;82.48;96513.66;5068515;28;20238;-70
2023/04/20 01:53:35;;;;;;;4.03;3.23;;;;;;;11.04;81.14;96514.41;5052078;28;20189;-70
2023/04/20 01:56:02;;;;;;;7.53;3.80;;;;;;;10.88;82.26;96502.38;5067727;28;20197;-68
2023/04/20 01:58:30;;;;;;;8.67;5.23;;;;;;;10.89;82.78;96499.69;5051871;28;20205;-69
2023/04/20 02:00:57;;;;;;;10.50;6.37;;;;;;;10.88;82.76;96504.97;5051269;28;20224;-69
2023/04/20 02:03:26;;;;;;;12.43;8.17;;;;;;;10.85;82.79;96508.56;5051005;28;20669;-68
2023/04/20 02:05:54;;;;;;;10.47;6.37;;;;;;;10.75;83.27;96501.38;5069741;28;20256;-71
2023/04/20 02:08:21;;;;;;;9.80;5.60;;;;;;;10.64;83.77;96507.97;5052246;28;20281;-70
2023/04/20 02:10:48;;;;;;;6.93;3.97;;;;;;;10.46;83.82;96500.38;5063420;28;20763;-70
2023/04/20 02:13:15;;;;;;;4.53;3.43;;;;;;;10.27;85.33;96502.28;5068150;28;20193;-70
2023/04/20 02:15:44;;;;;;;6.10;3.80;;;;;;;10.28;85.61;96499.59;5051767;28;20318;-70
2023/04/20 02:18:11;;;;;;;5.93;3.43;;;;;;;10.37;85.43;96487.91;5051084;28;20191;-71
2023/04/20 02:20:38;;;;;;;5.23;3.60;;;;;;;10.43;85.02;96501.38;5068697;28;20189;-70
2023/04/20 02:23:05;;;;;;;6.50;4.37;;;;;;;10.54;84.50;96491.28;5051576;28;20270;-70
2023/04/20 02:25:34;;;;;;;8.90;4.80;;;;;;;10.54;84.29;96490.44;5068404;28;20273;-69
2023/04/20 02:28:03;;;;;;;10.73;6.97;;;;;;;10.57;83.89;96485.09;5069445;28;20284;-71
2023/04/20 02:30:30;;;;;;;7.17;5.33;;;;;;;10.39;84.13;96491.25;5067854;28;20185;-71
2023/04/20 02:32:58;;;;;;;10.50;6.23;;;;;;;10.46;84.23;96492.63;5069216;28;20185;-69
2023/04/20 02:35:25;;;;;;;12.40;7.73;;;;;;;10.43;84.36;96495.34;5068521;28;20192;-71
2023/04/20 02:37:52;;;;;;;10.07;6.70;;;;;;;10.54;84.78;96490.44;5068040;28;20927;-69
2023/04/20 02:40:19;;;;;;;5.57;4.17;;;;;;;10.41;84.23;96500.63;5068990;28;20268;-69
2023/04/20 02:42:46;;;;;;;6.27;3.93;;;;;;;10.11;85.97;96486.72;5067430;28;20193;-67
2023/04/20 02:45:14;;;;;;;3.87;3.33;;;;;;;10.21;85.85;96494.84;5050799;28;20236;-67
2023/04/20 02:47:43;;;;;;;5.00;3.60;;;;;;;9.98;86.29;96495.16;5049315;28;20728;-68
2023/04/20 02:50:12;;;;;;;5.63;3.80;;;;;;;9.90;86.91;96486.97;5050797;28;20271;-68
2023/04/20 02:52:58;;;;;;;4.83;4.33;;;;;;;9.95;86.07;96491.00;5050588;28;20193;-71
2023/04/20 02:55:26;;;;;;;15.30;5.40;;;;;;;9.94;86.80;96485.91;5049364;28;20194;-68
2023/04/20 02:57:58;;;;;;;5.70;3.80;;;;;;;9.96;86.59;96487.50;5068594;28;20189;-67
2023/04/20 03:00:38;;;;;;;5.93;4.00;;;;;;;10.10;86.94;96490.22;5049109;28;20185;-68
2023/04/20 03:03:08;;;;;;;6.93;4.37;;;;;;;10.26;86.46;96485.91;5050755;28;20275;-68
2023/04/20 03:05:35;;;;;;;5.20;3.97;;;;;;;10.22;85.58;96486.16;5049695;28;20221;-67
2023/04/20 03:08:04;;;;;;;6.87;4.80;;;;;;;10.25;85.77;96488.56;5049099;28;20217;-68
2023/04/20 03:10:32;;;;;;;9.83;4.67;;;;;;;10.20;85.69;96493.19;5050540;28;20213;-68
2023/04/20 03:13:08;;;;;;;6.43;4.13;;;;;;;10.07;85.50;96474.00;5049122;28;20258;-68
2023/04/20 03:15:55;;;;;;;7.03;4.50;;;;;;;9.89;86.04;96449.09;5069987;28;20218;-68
2023/04/20 03:18:45;;;;;;;7.73;5.13;;;;;;;10.20;85.88;96482.81;5049934;28;20196;-68
2023/04/20 03:21:13;;;;;;;10.37;4.90;;;;;;;10.28;85.67;96491.81;5066052;28;20186;-68
2023/04/20 03:23:40;;;;;;;6.40;5.07;;;;;;;10.26;85.20;96490.25;5066884;28;20225;-68
2023/04/20 03:26:07;;;;;;;6.67;4.87;;;;;;;10.24;85.52;96492.09;5048492;28;20220;-69
2023/04/20 03:28:51;;;;;;;8.77;5.27;;;;;;;10.42;85.17;96491.09;5050325;28;20244;-68
2023/04/20 03:31:23;;;;;;;9.97;5.80;;;;;;;10.43;84.44;96485.84;5049102;28;20189;-68
2023/04/20 03:33:52;;;;;;;10.07;4.77;;;;;;;10.40;85.07;96492.94;5049489;28;20185;-69
2023/04/20 03:36:19;;;;;;;7.53;4.57;;;;;;;10.47;84.50;96492.53;5049987;28;20310;-68
2023/04/20 03:38:46;;;;;;;5.17;3.90;;;;;;;10.38;84.89;96493.03;5048415;28;20268;-69
2023/04/20 03:41:13;;;;;;;6.77;4.43;;;;;;;10.26;84.72;96479.91;5076768;28;20189;-69
2023/04/20 03:43:47;;;;;;;8.53;4.30;;;;;;;10.26;85.79;96500.63;5082919;28;20246;-69
2023/04/20 03:46:14;;;;;;;8.97;5.40;;;;;;;10.28;85.61;96499.59;5077106;28;20209;-69
2023/04/20 03:48:41;;;;;;;9.07;4.97;;;;;;;10.04;85.34;96469.81;5087099;28;20189;-70
2023/04/20 03:51:08;;;;;;;6.93;4.63;;;;;;;10.00;85.82;96489.00;5087403;28;20188;-69
2023/04/20 03:53:37;;;;;;;6.23;4.50;;;;;;;9.99;86.43;96491.69;5088051;28;20188;-69
2023/04/20 03:56:07;;;;;;;6.90;4.93;;;;;;;9.94;86.70;96488.47;5050373;28;20686;-69
2023/04/20 03:58:34;;;;;;;8.30;5.20;;;;;;;9.82;86.38;96470.13;5084898;28;20185;-70
2023/04/20 04:01:12;;;;;;;8.93;6.27;;;;;;;9.79;87.02;96484.94;5067664;28;20195;-70
2023/04/20 04:03:44;;;;;;;8.07;5.83;;;;;;;9.81;86.80;96486.53;5087769;28;20191;-69
2023/04/20 04:06:12;;;;;;;8.33;6.50;;;;;;;9.74;87.11;96498.13;5068732;28;20216;-67
2023/04/20 04:08:46;;;;;;;9.33;6.50;;;;;;;9.79;86.59;96495.28;5050973;28;20193;-68
2023/04/20 04:11:13;;;;;;;10.10;5.83;;;;;;;9.98;85.95;96492.56;5069134;28;20204;-67
2023/04/20 04:13:40;;;;;;;8.23;5.43;;;;;;;9.93;85.48;96492.84;5067449;28;20204;-67
2023/04/20 04:16:08;;;;;;;9.20;5.53;;;;;;;9.81;85.75;96496.03;5069531;28;20187;-67
2023/04/20 04:18:37;;;;;;;7.23;4.97;;;;;;;9.88;85.28;96497.41;5085825;28;20981;-67
2023/04/20 04:21:09;;;;;;;7.17;5.73;;;;;;;9.76;85.35;96485.94;5087485;28;20280;-70
2023/04/20 04:23:41;;;;;;;11.10;5.60;;;;;;;10.04;84.90;96492.25;5068935;28;20220;-68
2023/04/20 04:26:23;;;;;;;8.13;5.33;;;;;;;10.44;83.26;96500.47;5067739;28;20295;-69
2023/04/20 04:28:51;;;;;;;8.27;5.87;;;;;;;10.38;82.19;96512.91;5069286;28;20655;-67
2023/04/20 04:31:20;;;;;;;7.70;5.43;;;;;;;10.40;82.27;96508.47;5067887;28;20691;-68
2023/04/20 04:33:48;;;;;;;10.00;5.97;;;;;;;10.76;82.16;96513.44;5069526;28;20233;-68
2023/04/20 04:36:25;;;;;;;10.07;5.43;;;;;;;11.03;80.23;96510.13;5053476;28;20210;-70
2023/04/20 04:38:55;;;;;;;7.83;5.20;;;;;;;10.86;80.89;96512.81;5068292;28;20259;-71
2023/04/20 04:41:22;;;;;;;7.93;5.93;;;;;;;11.36;80.15;96508.22;5052733;28;20191;-72
2023/04/20 04:43:50;;;;;;;5.33;4.70;;;;;;;11.75;77.88;96512.88;5050988;28;20261;-72
2023/04/20 04:46:26;;;;;;;6.20;4.83;;;;;;;11.94;77.66;96490.13;5069019;28;20215;-69
2023/04/20 04:48:59;;;;;;;7.03;4.90;;;;;;;12.09;76.44;96509.13;5067018;28;20190;-69
2023/04/20 04:51:27;;;;;;;8.57;5.53;;;;;;;11.93;77.16;96506.59;5068958;28;20200;-69
2023/04/20 04:53:55;;;;;;;18.03;7.97;;;;;;;12.18;77.54;96503.34;5051569;28;20683;-71
2023/04/20 04:56:22;;;;;;;10.20;5.90;;;;;;;12.49;76.45;96508.34;5085538;28;20233;-71
2023/04/20 04:58:49;;;;;;;9.50;6.70;;;;;;;12.56;76.00;96504.47;5086982;28;20227;-71
2023/04/20 05:01:17;;;;;;;11.80;6.13;;;;;;;12.71;74.74;96493.13;5067026;28;20198;-69
2023/04/20 05:03:44;;;;;;;14.60;7.17;;;;;;;13.00;73.85;96518.06;5087069;28;20195;-73
2023/04/20 05:06:11;;;;;;;13.67;7.47;;;;;;;13.28;72.17;96525.00;5067340;28;20326;-72
2023/04/20 05:08:38;;;;;;;8.27;6.33;;;;;;;13.15;73.08;96521.50;5086837;28;20255;-72
2023/04/20 05:11:05;;;;;;;13.07;6.73;;;;;;;13.26;72.45;96524.25;5086343;28;20202;-70
2023/04/20 05:13:32;;;;;;;13.10;6.50;;;;;;;13.06;73.67;96522.91;5086139;28;20186;-70
2023/04/20 05:15:59;;;;;;;11.30;6.73;;;;;;;13.06;73.32;96533.31;5068975;28;20186;-69
2023/04/20 05:18:26;;;;;;;14.80;6.90;;;;;;;13.36;72.55;96527.91;5085363;28;20190;-71
2023/04/20 05:20:53;;;;;;;13.97;6.43;;;;;;;13.17;73.03;96521.41;5087027;28;20237;-70
2023/04/20 05:23:20;;;;;;;19.60;8.37;;;;;;;13.34;72.34;96526.34;5085079;28;20213;-69
2023/04/20 05:25:47;;;;;;;8.43;6.80;;;;;;;13.37;71.79;96533.97;5086537;28;20220;-71
2023/04/20 05:28:17;;;;;;;13.07;8.30;;;;;;;13.52;71.68;96532.94;5085942;28;20302;-71
2023/04/20 05:30:47;;;;;;;11.90;7.50;;;;;;;13.79;70.38;96536.34;5087841;28;20219;-72
2023/04/20 05:33:15;;;;;;;9.53;7.27;;;;;;;13.61;70.41;96525.41;5070901;28;20214;-70
2023/04/20 05:35:42;;;;;;;12.33;7.60;;;;;;;14.03;69.76;96539.94;5079809;28;20224;-71
2023/04/20 05:38:09;;;;;;;11.00;7.97;;;;;;;13.86;69.13;96537.63;5070063;28;20262;-72
2023/04/20 05:40:36;;;;;;;9.17;6.67;;;;;;;13.80;68.76;96543.22;5068811;28;20189;-69
2023/04/20 05:43:03;;;;;;;9.87;6.97;;;;;;;13.89;69.29;96538.22;5070203;28;20207;-70
2023/04/20 05:45:31;;;;;;;11.53;6.90;;;;;;;14.04;68.68;96540.75;5069052;28;20222;-69
2023/04/20 05:47:59;;;;;;;9.73;7.20;;;;;;;13.92;67.92;96545.00;5068819;28;20594;-69
2023/04/20 05:50:27;;;;;;;11.13;6.97;;;;;;;13.91;67.40;96540.72;5051909;28;20785;-71
2023/04/20 05:53:10;;;;;;;10.33;7.27;;;;;;;13.94;67.21;96545.75;5068274;28;20222;-73
2023/04/20 05:55:38;;;;;;;14.73;7.83;;;;;;;14.16;67.05;96530.34;5066562;28;20199;-70
2023/04/20 05:58:08;;;;;;;12.97;7.17;;;;;;;14.14;66.85;96542.63;5070595;28;20287;-69
2023/04/20 06:00:35;;;;;;;9.77;7.47;;;;;;;14.25;65.40;96544.50;5089742;28;20199;-69
2023/04/20 06:03:03;;;;;;;11.43;6.90;;;;;;;14.31;65.17;96544.13;5071029;28;20602;-69
2023/04/20 06:05:30;;;;;;;9.30;6.87;;;;;;;14.07;65.71;96546.59;5070464;28;20212;-68
2023/04/20 06:07:58;;;;;;;12.50;7.90;;;;;;;14.19;65.43;96535.34;5089695;28;20187;-69
2023/04/20 06:10:25;;;;;;;9.97;7.73;;;;;;;14.61;64.64;96537.63;5088155;28;20653;-70
2023/04/20 06:12:53;;;;;;;10.10;8.23;;;;;;;14.89;63.22;96540.91;5071849;28;20189;-69
2023/04/20 06:15:21;;;;;;;15.07;6.90;;;;;;;15.08;62.72;96536.06;5069773;28;20227;-69
2023/04/20 06:17:48;;;;;;;8.40;6.40;;;;;;;14.95;62.46;96541.31;5054137;28;20207;-69
2023/04/20 06:20:15;;;;;;;12.40;6.93;;;;;;;15.13;62.82;96540.00;5088951;28;20188;-69
2023/04/20 06:22:44;;;;;;;11.43;7.97;;;;;;;15.32;61.44;96544.72;5088236;28;20293;-70
2023/04/20 06:25:14;;;;;;;16.43;7.77;;;;;;;15.55;60.98;96538.69;5071431;28;20668;-69
2023/04/20 06:27:42;;;;;;;10.20;7.60;;;;;;;15.41;60.35;96528.41;5070225;28;20214;-69
2023/04/20 06:30:13;;;;;;;15.63;7.80;;;;;;;15.58;59.30;96522.78;5071988;28;20214;-70
2023/04/20 06:32:40;;;;;;;9.63;7.67;;;;;;;15.81;59.63;96526.31;5092852;28;20230;-72
2023/04/20 06:35:08;;;;;;;10.57;7.13;;;;;;;16.00;58.17;96532.66;5059085;28;20196;-68
2023/04/20 06:37:35;;;;;;;11.10;6.50;;;;;;;16.07;57.98;96520.78;5090166;28;20578;-69
2023/04/20 06:40:09;;;;;;;7.83;6.57;;;;;;;15.73;58.17;96534.72;5069998;28;20299;-69
2023/04/20 06:42:46;;;;;;;8.93;6.47;;;;;;;15.64;58.63;96516.31;5089439;28;20188;-70
2023/04/20 06:45:17;;;;;;;11.67;7.13;;;;;;;15.74;57.33;96538.16;5069127;28;20201;-70
2023/04/20 06:47:46;;;;;;;9.53;5.60;;;;;;;15.85;56.64;96531.19;5088725;28;20189;-70
2023/04/20 06:50:13;;;;;;;9.43;6.27;;;;;;;16.01;56.42;96534.31;5087787;28;20242;-70
2023/04/20 06:52:40;;;;;;;11.60;6.17;;;;;;;15.84;56.56;96537.38;5088132;28;20180;-72
2023/04/20 06:55:47;;;;;;;6.23;5.27;;;;;;;15.87;56.26;96542.34;5070440;28;20196;-70
2023/04/20 06:59:08;;;;;;;7.60;6.30;;;;;;;16.03;53.46;96548.09;5086106;28;20188;-70
2023/04/20 07:02:29;;;;;;;6.40;5.73;;;;;;;15.90;53.70;96549.97;5085956;28;20221;-70
2023/04/20 07:05:49;;;;;;;6.97;5.00;;;;;;;15.82;52.25;96531.44;5087819;28;20177;-69
2023/04/20 07:09:11;;;;;;;7.93;6.50;;;;;;;15.87;52.81;96538.91;5087054;28;20184;-69
2023/04/20 07:12:32;;;;;;;6.83;4.77;;;;;;;15.78;52.92;96516.09;5086327;28;20591;-70
2023/04/20 07:15:53;;;;;;;5.20;4.70;;;;;;;15.92;52.27;96535.03;5085926;28;20609;-71
2023/04/20 07:19:14;;;;;;;6.13;5.23;;;;;;;15.83;52.54;96542.69;5086543;28;20207;-70
2023/04/20 07:21:55;;;;;;;6.77;4.73;;;;;;;16.01;51.27;96534.31;5087537;28;20200;-71
2023/04/20 07:24:22;;;;;;;6.73;5.00;;;;;;;16.27;51.54;96535.81;5068035;28;20204;-72
2023/04/20 07:27:01;;;;;;;7.87;5.30;;;;;;;16.67;50.41;96538.00;5087526;28;20584;-70
2023/04/20 07:29:28;;;;;;;5.10;4.43;;;;;;;16.42;49.24;96538.19;5087583;28;20275;-68
2023/04/20 07:31:55;;;;;;;5.30;4.23;;;;;;;16.18;49.65;96535.66;5068776;28;20193;-70
2023/04/20 07:34:22;;;;;;;8.70;4.80;;;;;;;16.18;49.98;96531.28;5087548;28;20210;-69
2023/04/20 07:36:50;;;;;;;5.60;4.57;;;;;;;16.38;49.05;96539.38;5086370;28;20246;-71
2023/04/20 07:39:17;;;;;;;4.43;4.03;;;;;;;16.42;48.60;96533.81;5087728;28;20267;-69
2023/04/20 07:41:45;;;;;;;5.23;4.67;;;;;;;16.34;49.78;96540.56;5068193;28;20197;-68
2023/04/20 07:44:12;;;;;;;6.20;4.37;;;;;;;16.40;49.35;96533.09;5069259;28;20271;-71
2023/04/20 07:46:40;;;;;;;7.10;4.50;;;;;;;16.57;47.99;96537.06;5052168;28;20314;-71
2023/04/20 07:49:08;;;;;;;5.60;4.70;;;;;;;16.40;48.07;96532.25;5068411;28;20210;-70
2023/04/20 07:51:35;;;;;;;6.17;4.87;;;;;;;16.28;48.57;96521.78;5087472;28;20194;-70
2023/04/20 07:54:02;;;;;;;6.43;5.27;;;;;;;16.24;49.29;96522.13;5085252;28;20200;-70
2023/04/20 07:56:29;;;;;;;5.47;4.53;;;;;;;16.21;48.92;96525.81;5087743;28;20281;-71
2023/04/20 07:58:57;;;;;;;6.17;4.53;;;;;;;16.39;48.75;96522.72;5066728;28;20197;-69
2023/04/20 08:01:26;;;;;;;5.40;4.63;;;;;;;16.34;48.78;96525.72;5052829;28;20247;-71
2023/04/20 08:03:54;;;;;;;5.50;4.77;;;;;;;16.59;49.38;96522.06;5086337;28;20192;-70
2023/04/20 08:06:22;;;;;;;5.80;5.10;;;;;;;16.64;49.42;96531.22;5035081;28;20228;-70
2023/04/20 08:08:49;;;;;;;5.10;4.60;;;;;;;16.54;48.69;96509.34;5087197;28;20197;-70
2023/04/20 08:11:20;;;;;;;9.77;5.03;;;;;;;16.88;49.05;96520.59;5085510;28;20224;-71
2023/04/20 08:13:47;;;;;;;7.07;4.73;;;;;;;17.07;46.23;96520.81;5069063;28;20219;-70
2023/04/20 08:16:14;;;;;;;6.53;4.80;;;;;;;17.09;45.56;96513.66;5085285;28;20222;-69
2023/04/20 08:18:41;;;;;;;5.83;5.07;;;;;;;17.16;45.82;96520.09;5086624;28;20192;-70
2023/04/20 08:21:08;;;;;;;8.10;5.63;;;;;;;17.26;45.00;96512.31;5067511;28;20667;-69
2023/04/20 08:23:36;;;;;;;7.87;4.53;;;;;;;17.32;46.29;96507.44;5085714;28;20221;-69
2023/04/20 08:26:03;;;;;;;7.67;5.77;;;;;;;17.55;46.39;96522.13;5086971;28;20213;-72
2023/04/20 08:28:30;;;;;;;7.20;6.30;;;;;;;17.80;46.75;96513.91;5085100;28;20193;-71
2023/04/20 08:31:00;;;;;;;6.40;5.07;;;;;;;17.46;46.42;96512.38;5069143;28;20195;-70
2023/04/20 08:33:27;;;;;;;6.10;4.70;;;;;;;17.32;46.62;96525.75;5085050;28;20252;-68
2023/04/20 08:35:54;;;;;;;5.73;4.63;;;;;;;17.01;46.46;96519.53;5068199;28;20206;-68
2023/04/20 08:38:23;;;;;;;6.37;4.83;;;;;;;16.85;46.95;96518.25;5085576;28;20189;-68
2023/04/20 08:41:00;;;;;;;5.80;4.80;;;;;;;16.80;47.05;96512.53;5085901;28;20284;-70
2023/04/20 08:43:28;;;;;;;4.73;4.13;;;;;;;16.84;46.53;96513.94;5087097;28;20213;-71
2023/04/20 08:46:01;;;;;;;6.57;5.00;;;;;;;17.06;46.28;96513.94;5085078;28;20262;-70
2023/04/20 08:48:36;;;;;;;5.47;4.93;;;;;;;17.18;48.02;96512.94;5086626;28;20208;-71
2023/04/20 08:51:05;;;;;;;5.00;4.50;;;;;;;17.30;46.28;96518.97;5067723;28;20176;-71
2023/04/20 08:53:32;;;;;;;7.07;4.33;;;;;;;17.45;46.44;96521.19;5062475;28;20196;-69
2023/04/20 08:55:59;;;;;;;6.40;4.77;;;;;;;17.56;45.44;96497.59;5072712;28;20289;-72
2023/04/20 08:58:31;;;;;;;5.50;4.53;;;;;;;17.47;45.23;96503.56;5065380;28;20186;-70
2023/04/20 09:01:00;;;;;;;4.73;4.30;;;;;;;17.57;45.25;96520.22;5066748;28;20199;-69
2023/04/20 09:03:46;;;;;;;5.23;4.73;;;;;;;17.60;46.01;96516.50;5065087;28;20193;-69
2023/04/20 09:06:16;;;;;;;6.77;5.47;;;;;;;17.95;45.83;96508.38;5051588;28;20590;-70
2023/04/20 09:08:45;;;;;;;7.60;4.80;;;;;;;18.20;45.02;96518.44;5051341;28;20222;-70
2023/04/20 09:11:28;;;;;;;5.73;4.40;;;;;;;17.98;44.61;96495.84;5051192;28;20206;-70
2023/04/20 09:13:58;;;;;;;4.73;4.30;;;;;;;17.92;43.93;96513.84;5072836;28;20288;-70
2023/04/20 09:16:28;;;;;;;5.90;4.63;;;;;;;17.97;44.04;96506.44;5077151;28;20225;-69
2023/04/20 09:18:56;;;;;;;7.00;4.90;;;;;;;17.76;44.55;96515.13;5072167;28;20681;-70
2023/04/20 09:21:27;;;;;;;6.70;4.60;;;;;;;17.90;43.47;96511.38;5088987;28;20200;-70
2023/04/20 09:24:05;;;;;;;5.00;4.20;;;;;;;18.10;43.42;96509.69;5089254;28;20313;-70
2023/04/20 09:26:34;;;;;;;7.03;4.70;;;;;;;18.33;42.17;96512.03;5070108;28;20246;-72
2023/04/20 09:29:03;;;;;;;7.10;4.37;;;;;;;18.41;41.40;96508.75;5072388;28;20276;-70
2023/04/20 09:31:30;;;;;;;5.67;4.00;;;;;;;18.20;42.42;96508.78;5089917;28;20195;-69
2023/04/20 09:33:57;;;;;;;5.67;4.73;;;;;;;18.49;41.98;96508.97;5088799;28;20187;-70
2023/04/20 09:36:36;;;;;;;5.30;4.30;;;;;;;18.50;41.11;96510.63;5090036;28;20193;-69
2023/04/20 09:39:09;;;;;;;5.80;4.37;;;;;;;18.29;42.16;96499.31;5089306;28;20198;-72
2023/04/20 09:41:39;;;;;;;5.10;4.40;;;;;;;18.32;41.98;96507.75;5070604;28;20213;-70
2023/04/20 09:44:08;;;;;;;7.13;4.33;;;;;;;18.71;41.81;96510.59;5089880;28;20695;-70
2023/04/20 09:46:37;;;;;;;4.70;3.80;;;;;;;18.40;41.49;96499.25;5069865;28;20239;-71
2023/04/20 09:49:09;;;;;;;5.07;4.57;;;;;;;18.82;41.83;96502.59;5090075;28;20249;-72
2023/04/20 09:51:40;;;;;;;5.97;4.40;;;;;;;19.13;41.06;96498.94;5088301;28;20197;-71
2023/04/20 09:54:07;;;;;;;7.20;5.37;;;;;;;19.37;40.81;96502.88;5088946;28;20188;-70
2023/04/20 09:56:34;;;;;;;9.17;5.03;;;;;;;18.90;40.24;96497.53;5089266;28;20244;-70
2023/04/20 09:59:05;;;;;;;5.13;4.67;;;;;;;18.95;40.30;96496.16;5087946;28;20273;-70
2023/04/20 10:01:34;;;;;;;5.03;3.87;;;;;;;18.39;40.24;96497.56;5089478;28;20549;-69
2023/04/20 10:04:07;;;;;;;4.30;3.90;;;;;;;18.10;40.49;96492.19;5069198;28;20254;-70
2023/04/20 10:06:37;;;;;;;4.50;3.70;;;;;;;18.42;40.77;96489.47;5071804;28;20661;-72
2023/04/20 10:09:07;;;;;;;6.27;4.40;;;;;;;18.83;39.67;96492.00;5088600;28;20660;-69
2023/04/20 10:11:34;;;;;;;4.60;3.73;;;;;;;19.11;38.18;96487.75;5088632;28;20282;-68
2023/04/20 10:14:19;;;;;;;5.73;4.40;;;;;;;19.12;38.35;96487.63;5088960;28;20209;-69
2023/04/20 10:17:04;;;;;;;5.13;4.50;;;;;;;19.43;38.05;96470.81;5069191;28;20241;-70
2023/04/20 10:19:44;;;;;;;6.53;4.30;;;;;;;19.31;40.26;96485.00;5089399;28;20245;-69
2023/04/20 10:22:24;;;;;;;5.47;4.70;;;;;;;19.05;40.71;96491.75;5088410;28;20850;-70
2023/04/20 10:24:51;;;;;;;4.27;3.83;;;;;;;18.74;40.36;96474.41;5051800;28;20609;-68
2023/04/20 10:27:21;;;;;;;5.03;4.40;;;;;;;18.47;41.21;96475.00;5068874;28;20285;-69
2023/04/20 10:29:48;;;;;;;5.33;4.50;;;;;;;18.65;40.07;96483.91;5072416;28;20201;-69
2023/04/20 10:32:22;;;;;;;6.00;4.40;;;;;;;18.35;41.03;96468.16;5089272;28;20244;-69
2023/04/20 10:35:05;;;;;;;4.87;3.70;;;;;;;18.70;39.60;96475.66;5064571;28;20770;-70
2023/04/20 10:37:33;;;;;;;8.20;4.60;;;;;;;19.17;39.34;96474.91;5050111;28;20196;-69
2023/04/20 10:40:01;;;;;;;5.63;4.30;;;;;;;19.41;38.97;96467.50;5050742;28;20671;-69
2023/04/20 10:42:43;;;;;;;7.33;4.77;;;;;;;19.17;42.49;96476.72;5062513;28;20290;-69
2023/04/20 10:45:12;;;;;;;7.00;4.60;;;;;;;18.92;42.83;96490.34;5088822;28;20578;-69
2023/04/20 10:47:39;;;;;;;4.53;4.13;;;;;;;18.74;41.33;96486.69;5088018;28;20231;-70
2023/04/20 10:50:17;;;;;;;6.13;4.60;;;;;;;18.49;42.06;96490.59;5097127;28;20217;-69
2023/04/20 10:52:44;;;;;;;4.90;4.40;;;;;;;18.03;41.97;96474.50;5093063;28;20723;-71
2023/04/20 10:55:20;;;;;;;4.87;4.40;;;;;;;18.41;41.93;96485.16;5088827;28;20191;-69
2023/04/20 10:57:48;;;;;;;4.97;4.47;;;;;;;18.37;43.46;96483.75;5089309;28;20191;-69
2023/04/20 11:00:20;;;;;;;5.40;4.37;;;;;;;18.51;43.47;96483.44;5086788;28;20189;-73
2023/04/20 11:02:53;;;;;;;5.37;4.77;;;;;;;18.58;42.14;96485.41;5074643;28;20249;-69
2023/04/20 11:05:23;;;;;;;5.77;4.70;;;;;;;18.39;43.33;96487.09;5032855;28;20210;-69
2023/04/20 11:07:55;;;;;;;7.50;4.30;;;;;;;18.54;41.78;96473.53;5049349;28;20229;-69
2023/04/20 11:10:40;;;;;;;4.97;4.10;;;;;;;18.19;42.53;96475.69;5067907;28;20197;-73
2023/04/20 11:13:24;;;;;;;7.00;4.23;;;;;;;18.18;42.47;96478.41;5066032;28;20190;-69
2023/04/20 11:15:51;;;;;;;4.53;3.73;;;;;;;18.34;41.35;96484.03;5033873;28;20193;-70
2023/04/20 11:18:20;;;;;;;8.30;4.70;;;;;;;18.63;42.17;96471.88;5067160;28;20218;-69
2023/04/20 11:20:52;;;;;;;6.70;4.27;;;;;;;18.74;42.66;96471.78;5028354;28;20230;-69
2023/04/20 11:23:24;;;;;;;6.47;5.17;;;;;;;18.73;43.38;96453.56;5052957;28;20303;-69
2023/04/20 11:25:52;;;;;;;5.57;4.90;;;;;;;18.66;44.35;96474.25;5086479;28;20194;-70
2023/04/20 11:28:20;;;;;;;6.90;4.87;;;;;;;18.69;45.33;96474.00;5086872;28;20217;-69
2023/04/20 11:30:49;;;;;;;7.27;5.07;;;;;;;18.88;43.41;96468.78;5068163;28;20190;-70
2023/04/20 11:33:28;;;;;;;5.77;4.70;;;;;;;18.84;43.62;96456.06;5088148;28;20188;-70
2023/04/20 11:35:58;;;;;;;7.17;5.27;;;;;;;18.98;43.69;96464.38;5036991;28;20296;-71
2023/04/20 11:38:27;;;;;;;5.83;5.23;;;;;;;19.01;44.06;96458.03;5086228;28;20584;-69
2023/04/20 11:40:54;;;;;;;6.27;4.73;;;;;;;18.83;44.10;96459.66;5087519;28;20187;-69
2023/04/20 11:43:22;;;;;;;6.90;5.17;;;;;;;18.71;43.58;96461.59;5086005;28;20200;-70
2023/04/20 11:45:49;;;;;;;10.07;6.70;;;;;;;18.98;42.33;96453.88;5087438;28;20188;-69
2023/04/20 11:48:17;;;;;;;6.77;5.07;;;;;;;19.07;41.84;96434.72;5086014;28;20223;-70